Beaufort, SC

11:56 AM EDT on March 30, 2017 (GMT -0400)
Downtown Marina Docks | | Change Station
Active Advisory: Coastal Flood Advisory Active Notice: Coastal Flood Advisory

Elev 0 ft 32.43 °N, 80.67 °W | Updated 9 seconds ago

Scattered Clouds
Scattered Clouds
81.3 °F
Feels Like 85 °F
N
3.2
Wind Variable Wind from ESE

Today
High -- | Low -- °F
--% Chance of Precip.
Yesterday
High -- | Low -- °F
Precip. -- in
Pressure 30.04 in
Visibility 10.0 miles
Clouds Scattered Clouds 2300 ft
Heat Index 85 °F
Dew Point 69 °F
Humidity 67%
Rainfall 0.00 in
Snow Depth Not available.
7:13 AM 7:41 PM
Waxing Crescent, 9% visible
METAR KARW 301535Z AUTO 14005KT 10SM SCT023 25/19 A3004 RMK AO2
Pressure 30.04 in
Visibility 10.0 miles
Clouds Scattered Clouds 2300 ft
Heat Index 85 °F
Dew Point 69 °F
Humidity 67%
Rainfall 0.00 in
Snow Depth Not available.
7:13 AM 7:41 PM
Waxing Crescent, 9% visible
METAR KARW 301535Z AUTO 14005KT 10SM SCT023 25/19 A3004 RMK AO2

Get Your Daily Forecast Email!

Thanks for signing up!

Be on the lookout for a verification email in your inbox.

You'll start receiving severe weather alerts in your inbox..

×

10-Day Weather Forecast

Almanac

Astronomy

Mar. 30, 2017 Rise Set
Actual Time
Civil Twilight
Nautical Twilight
Astronomical Twilight
Moon
Length of Visible Light
Length of Day
Tomorrow will be .
, % of the Moon is Illuminated

Today's Extremes

State Highs State Lows

Community

WunderPhotos

Upload Photos

1,962,540 photos uploaded!

WunderBlog® & News

Nearby

Air Quality

  Air Quality AQ Index Pollutant
Not available.

Snow Depth

Station Depth Elevation

Earthquake Activity

City Distance Mag. Time & Date
Minimum magnitude displayed is 2.5.

Earthquake Activity

City Distance Mag. Time & Date
Minimum magnitude displayed is 2.5.

Coastal Water Temperatures

Place Temperature

Stations

Nearby Weather Stations

Station Location Temp. Windchill Dew Point Humidity Wind Precip. Elev Updated Type
                   

Watches & Warnings

Coastal Flood Advisory
Issued: 11:27 AM EDT Mar. 30, 2017 – National Weather Service

... Coastal flood advisory in effect from 9 PM this evening to
midnight EDT tonight...

The National Weather Service in Charleston has issued a coastal
flood advisory... which is in effect from 9 PM this evening to
midnight EDT tonight.

* Location... low-lying coastal areas of southeast South Carolina
including downtown Charleston.

* Tide levels... peaking between 7.3 and 7.6 feet mean lower low
water.

* Timing... high tide will occur around 11 PM at Charleston Harbor.
Shallow saltwater flooding will be possible 1 to 2 hours before
and after high tide.

* Impacts... inundation of saltwater in and near low-lying coastal
areas could result in some Road closures and flooding of
properties.

Precautionary/preparedness actions...

Be prepared for the possibility of impassable roads and minor
flooding of properties. If travel is necessary... do not attempt
to drive through water of unknown depth.



Jrl